Time;durP1;ratioP1;P1;durP2;ratioP2;P2;SDS_P1;SDS_P2;PMS_P1;PMS_P2;Temp;Humidity;BMP_temperature;BMP_pressure;BME280_temperature;BME280_humidity;BME280_pressure;Samples;Min_cycle;Max_cycle;Signal;HPM_P1;HPM_P2
2022/06/08 00:00:09;;;;;;;21.42;2.85;;;;;;;47.34;11.82;100313.94;5087724;28;20540;-70
2022/06/08 00:02:39;;;;;;;12.57;2.53;;;;;;;47.03;11.43;100311.44;5089688;28;20498;-68
2022/06/08 00:05:06;;;;;;;18.05;2.60;;;;;;;46.80;11.65;100311.50;5094427;28;20555;-70
2022/06/08 00:07:32;;;;;;;14.30;2.47;;;;;;;43.98;13.92;100318.75;5087476;28;20575;-69
2022/06/08 00:09:59;;;;;;;28.75;4.05;;;;;;;44.27;13.22;100317.75;5092435;28;20052;-70
2022/06/08 00:12:28;;;;;;;27.10;3.28;;;;;;;45.15;12.65;100309.47;5108964;28;20426;-69
2022/06/08 00:14:55;;;;;;;33.35;3.78;;;;;;;45.56;12.31;100309.88;5097308;28;20395;-69
2022/06/08 00:17:23;;;;;;;28.10;3.10;;;;;;;44.98;12.60;100309.38;5103621;28;20036;-69
2022/06/08 00:19:49;;;;;;;21.08;2.80;;;;;;;43.92;13.23;100317.16;5071724;28;20052;-70
2022/06/08 00:22:17;;;;;;;13.95;2.75;;;;;;;43.87;13.64;100318.66;5085206;28;20057;-69
2022/06/08 00:24:44;;;;;;;17.42;2.80;;;;;;;44.24;13.35;100315.91;5089832;28;20024;-70
2022/06/08 00:27:12;;;;;;;20.50;2.95;;;;;;;44.58;12.86;100316.19;5070033;28;20124;-69
2022/06/08 00:29:38;;;;;;;18.50;2.70;;;;;;;44.68;13.05;100313.88;5086238;28;20036;-70
2022/06/08 00:32:07;;;;;;;17.38;2.63;;;;;;;43.83;13.43;100309.53;5086447;28;20024;-69
2022/06/08 00:34:34;;;;;;;18.45;2.80;;;;;;;44.13;13.28;100317.88;5075575;28;20462;-69
2022/06/08 00:37:00;;;;;;;15.57;2.90;;;;;;;44.10;13.42;100310.31;5069873;28;20031;-69
2022/06/08 00:39:27;;;;;;;20.73;3.10;;;;;;;43.63;14.16;100300.94;5093409;28;20474;-69
2022/06/08 00:42:00;;;;;;;14.65;2.45;;;;;;;43.75;13.95;100316.97;5071543;28;20032;-66
2022/06/08 00:44:39;;;;;;;15.32;2.80;;;;;;;43.19;14.74;100310.56;5075714;28;20064;-68
2022/06/08 00:47:08;;;;;;;12.95;2.60;;;;;;;43.16;15.08;100317.28;5092659;28;20064;-67
2022/06/08 00:49:47;;;;;;;22.67;2.17;;;;;;;41.81;16.11;100308.63;5090178;28;20020;-69
2022/06/08 00:52:15;;;;;;;9.27;2.00;;;;;;;41.05;16.71;100313.81;5090794;28;20511;-68
2022/06/08 00:54:47;;;;;;;12.85;2.33;;;;;;;41.78;16.17;100312.47;5096748;28;20051;-67
2022/06/08 00:57:38;;;;;;;26.87;2.93;;;;;;;42.40;15.64;100314.34;5094132;28;20036;-66
2022/06/08 01:00:10;;;;;;;33.47;3.15;;;;;;;42.66;15.70;100308.78;5095423;28;20493;-67
2022/06/08 01:02:38;;;;;;;15.82;2.03;;;;;;;42.43;15.35;100315.44;5096653;28;20036;-68
2022/06/08 01:05:28;;;;;;;13.20;2.25;;;;;;;42.07;15.89;100313.75;5077982;28;20044;-68
2022/06/08 01:08:02;;;;;;;12.90;1.90;;;;;;;41.97;15.84;100321.63;5075877;28;20048;-68
2022/06/08 01:10:40;;;;;;;12.45;2.08;;;;;;;41.74;16.06;100317.59;5079070;28;20573;-67
2022/06/08 01:13:07;;;;;;;19.77;2.10;;;;;;;41.10;16.50;100317.25;5078161;28;20043;-67
2022/06/08 01:15:37;;;;;;;18.27;2.30;;;;;;;41.06;16.52;100317.47;5075481;28;20016;-68
2022/06/08 01:18:05;;;;;;;10.40;1.70;;;;;;;41.28;15.87;100317.94;5078063;28;20485;-67
2022/06/08 01:20:32;;;;;;;12.68;2.25;;;;;;;41.32;15.88;100314.94;5097264;28;20442;-68
2022/06/08 01:23:00;;;;;;;11.57;2.00;;;;;;;41.10;16.12;100311.56;5077862;28;20032;-67
2022/06/08 01:25:36;;;;;;;11.68;2.05;;;;;;;41.04;15.95;100308.59;5077832;28;20032;-68
2022/06/08 01:28:35;;;;;;;13.02;2.40;;;;;;;41.01;15.45;100315.28;5094738;28;20142;-68
2022/06/08 01:31:12;;;;;;;11.80;2.17;;;;;;;40.92;15.65;100315.31;5007719;28;20068;-69
2022/06/08 01:33:41;;;;;;;12.55;2.20;;;;;;;40.68;15.62;100318.13;5092341;28;20036;-69
2022/06/08 01:36:40;;;;;;;12.63;1.92;;;;;;;40.49;15.87;100328.03;5095768;28;20035;-69
2022/06/08 01:39:15;;;;;;;10.95;2.40;;;;;;;40.26;16.59;100316.09;5076745;28;20057;-68
2022/06/08 01:41:56;;;;;;;11.35;2.05;;;;;;;40.15;16.78;100341.41;5093087;28;20052;-68
2022/06/08 01:45:28;;;;;;;16.10;1.85;;;;;;;40.06;17.28;100330.06;5094686;28;20068;-68
2022/06/08 01:47:51;;;;;;;19.55;2.50;;;;;;;39.95;17.24;100327.66;5095531;28;20051;-69
2022/06/08 01:50:31;;;;;;;14.90;1.83;;;;;;;39.78;17.17;100340.66;5093127;28;20036;-68
2022/06/08 01:53:08;;;;;;;15.95;1.95;;;;;;;39.35;17.81;100334.00;5093485;28;20059;-69
2022/06/08 01:55:47;;;;;;;15.43;1.80;;;;;;;39.04;17.81;100334.09;5091844;28;20082;-68
2022/06/08 01:58:26;;;;;;;37.22;2.75;;;;;;;38.73;18.24;100337.00;5089307;28;20048;-68
2022/06/08 02:01:11;;;;;;;13.60;1.80;;;;;;;38.56;18.13;100327.91;5075232;28;20115;-67
2022/06/08 02:04:04;;;;;;;15.40;2.20;;;;;;;38.30;18.73;100333.00;5074560;28;20055;-67
2022/06/08 02:06:41;;;;;;;11.95;2.00;;;;;;;38.26;19.01;100342.94;5031140;28;20040;-63
2022/06/08 02:09:22;;;;;;;9.48;1.90;;;;;;;38.01;19.39;100336.13;5070153;28;20136;-62
2022/06/08 02:11:58;;;;;;;9.20;1.80;;;;;;;37.78;20.21;100342.28;5072649;28;20036;-63
2022/06/08 02:14:43;;;;;;;8.77;1.40;;;;;;;37.48;20.27;100340.88;5071017;28;20028;-64
2022/06/08 02:17:29;;;;;;;9.20;1.63;;;;;;;37.33;20.77;100339.78;5072640;28;20033;-64
2022/06/08 02:20:08;;;;;;;9.48;1.52;;;;;;;37.16;21.11;100354.09;5071293;28;20025;-63
2022/06/08 02:22:44;;;;;;;8.95;1.55;;;;;;;36.91;21.11;100348.47;5071826;28;20482;-62
2022/06/08 02:25:28;;;;;;;8.18;1.70;;;;;;;36.61;21.41;100359.09;5070882;28;20040;-63
2022/06/08 02:28:25;;;;;;;17.15;2.13;;;;;;;36.28;22.77;100352.84;5071474;28;20033;-61
2022/06/08 02:31:12;;;;;;;10.85;2.00;;;;;;;36.11;22.79;100351.34;5070232;28;20138;-63
2022/06/08 02:36:35;;;;;;;19.95;2.13;;;;;;;35.79;23.34;100376.88;5070354;28;20063;-63
2022/06/08 02:39:09;;;;;;;13.68;2.13;;;;;;;35.65;22.76;100375.22;5072077;28;20032;-62
2022/06/08 02:41:38;;;;;;;;;;;;;;;35.51;23.00;100375.59;5072717;28;20119;-62
2022/06/08 02:44:12;;;;;;;15.20;1.90;;;;;;;35.40;23.19;100373.88;5069396;28;19916;-62
2022/06/08 02:46:52;;;;;;;15.88;1.95;;;;;;;35.25;23.42;100371.81;5072417;28;20097;-65
2022/06/08 02:49:22;;;;;;;16.67;2.30;;;;;;;35.08;24.26;100376.69;5071339;28;20041;-63
2022/06/08 02:51:51;;;;;;;24.65;2.70;;;;;;;34.99;24.46;100380.09;5071982;28;20553;-62
2022/06/08 02:54:24;;;;;;;27.75;2.85;;;;;;;34.77;25.13;100387.47;5055751;28;20082;-62
2022/06/08 02:56:58;;;;;;;24.77;3.20;;;;;;;34.68;25.40;100384.47;5070434;28;20123;-63
2022/06/08 02:59:51;;;;;;;16.95;2.60;;;;;;;34.41;25.83;100370.56;5055357;28;20111;-62
2022/06/08 03:02:33;;;;;;;19.13;2.63;;;;;;;34.46;25.63;100384.13;5071426;28;20445;-62
2022/06/08 03:05:19;;;;;;;15.70;2.53;;;;;;;34.17;26.10;100378.31;5071433;28;20479;-63
2022/06/08 03:08:06;;;;;;;15.77;2.20;;;;;;;34.08;26.33;100386.53;5074155;28;20485;-62
2022/06/08 03:10:41;;;;;;;23.65;2.97;;;;;;;33.97;26.68;100394.44;5090465;28;20554;-63
2022/06/08 03:13:12;;;;;;;;;;;;;;;33.87;26.80;100397.00;5072729;28;20562;-61
2022/06/08 03:15:42;;;;;;;17.00;2.67;;;;;;;33.72;27.09;100392.84;5092271;28;20309;-62
2022/06/08 03:18:09;;;;;;;20.00;2.80;;;;;;;33.74;27.26;100396.03;5072175;28;20394;-62
2022/06/08 03:20:36;;;;;;;24.83;2.67;;;;;;;33.73;27.33;100410.53;5075300;28;20504;-62
2022/06/08 03:23:03;;;;;;;17.08;2.55;;;;;;;33.54;27.68;100392.38;5074781;28;20028;-61
2022/06/08 03:25:34;;;;;;;18.65;2.83;;;;;;;33.54;28.31;100415.72;5074706;28;20512;-63
2022/06/08 03:28:02;;;;;;;28.23;2.80;;;;;;;33.42;27.89;100412.72;5092734;28;20367;-63
2022/06/08 03:30:29;;;;;;;15.77;3.22;;;;;;;33.28;28.44;100408.88;5075682;28;20035;-63
2022/06/08 03:33:00;;;;;;;22.67;2.60;;;;;;;33.23;28.70;100417.84;5089062;28;20055;-65
2022/06/08 03:35:27;;;;;;;21.92;2.88;;;;;;;33.14;28.80;100420.38;5074035;28;20063;-64
2022/06/08 03:37:55;;;;;;;20.27;2.47;;;;;;;33.18;28.59;100428.78;5093270;28;20022;-62
2022/06/08 03:40:27;;;;;;;20.80;3.40;;;;;;;33.04;28.97;100412.91;5076089;28;20036;-62
2022/06/08 03:42:54;;;;;;;20.95;2.90;;;;;;;33.06;29.56;100424.53;5086508;28;20031;-65
2022/06/08 03:45:21;;;;;;;26.40;4.78;;;;;;;32.93;29.21;100423.53;5088480;28;20099;-63
2022/06/08 03:47:51;;;;;;;40.67;4.20;;;;;;;32.76;29.91;100431.78;5087283;28;20028;-63
2022/06/08 03:50:24;;;;;;;22.35;3.08;;;;;;;32.74;29.57;100428.59;5092253;28;20379;-63
2022/06/08 03:52:59;;;;;;;30.05;4.20;;;;;;;32.76;29.62;100439.44;5084781;28;20481;-63
2022/06/08 03:55:28;;;;;;;39.13;5.35;;;;;;;32.64;28.79;100440.78;5081959;28;20398;-62
2022/06/08 03:57:57;;;;;;;40.20;3.80;;;;;;;32.56;30.30;100442.09;5085239;28;20027;-61
2022/06/08 04:00:27;;;;;;;27.90;3.47;;;;;;;32.56;29.88;100444.94;5069044;28;20486;-62
2022/06/08 04:03:09;;;;;;;22.83;3.85;;;;;;;32.49;30.16;100458.28;5069082;28;20024;-62
2022/06/08 04:05:37;;;;;;;28.08;3.35;;;;;;;32.39;30.56;100460.00;5069215;28;20551;-63
2022/06/08 04:08:09;;;;;;;23.95;3.30;;;;;;;32.39;29.93;100452.38;5067359;28;20113;-62
2022/06/08 04:10:44;;;;;;;20.55;3.53;;;;;;;32.29;30.41;100467.34;5068699;28;20032;-63
2022/06/08 04:13:11;;;;;;;31.50;3.92;;;;;;;32.14;30.59;100469.50;5067603;28;20036;-62
2022/06/08 04:15:45;;;;;;;20.92;3.17;;;;;;;32.11;31.10;100466.72;5067553;28;20089;-62
2022/06/08 04:18:26;;;;;;;23.00;3.20;;;;;;;32.09;31.17;100472.75;5068292;28;20024;-61
2022/06/08 04:21:00;;;;;;;21.83;2.90;;;;;;;32.11;31.68;100475.16;5068737;28;20043;-61
2022/06/08 04:23:39;;;;;;;30.92;2.95;;;;;;;31.98;31.95;100476.91;5052103;28;20033;-61
2022/06/08 04:26:06;;;;;;;27.08;3.20;;;;;;;32.16;32.21;100481.13;5065975;28;20032;-62
2022/06/08 04:28:34;;;;;;;23.88;3.60;;;;;;;32.01;32.10;100484.50;5072213;28;20020;-63
2022/06/08 04:31:07;;;;;;;41.17;3.42;;;;;;;32.01;32.75;100485.31;5072106;28;20039;-62
2022/06/08 04:33:36;;;;;;;39.60;4.07;;;;;;;32.00;32.16;100494.97;5072293;28;20036;-64
2022/06/08 04:36:05;;;;;;;32.45;2.90;;;;;;;31.94;32.69;100490.97;5070446;28;20746;-62
2022/06/08 04:38:33;;;;;;;28.95;3.08;;;;;;;31.88;32.53;100492.66;5076003;28;20032;-63
2022/06/08 04:41:01;;;;;;;37.88;3.35;;;;;;;31.75;32.91;100494.38;5072618;28;20055;-61
2022/06/08 04:43:30;;;;;;;27.38;3.10;;;;;;;31.49;33.42;100493.75;5074728;28;20040;-62
2022/06/08 04:45:59;;;;;;;32.22;5.05;;;;;;;31.41;32.92;100488.59;5069829;28;20047;-61
2022/06/08 04:48:28;;;;;;;34.38;3.42;;;;;;;31.43;33.80;100486.19;5071030;28;20115;-62
2022/06/08 04:50:55;;;;;;;32.70;3.47;;;;;;;31.32;33.90;100493.91;5072390;28;20024;-63
2022/06/08 04:53:22;;;;;;;34.47;3.15;;;;;;;31.37;34.01;100499.06;5087746;28;20032;-63
2022/06/08 04:55:49;;;;;;;37.22;3.17;;;;;;;31.23;33.92;100505.56;5070996;28;20020;-63
2022/06/08 04:58:17;;;;;;;26.15;2.85;;;;;;;31.12;34.43;100502.81;5088544;28;20035;-61
2022/06/08 05:00:44;;;;;;;24.05;2.90;;;;;;;31.19;34.29;100499.97;5069130;28;20573;-61
2022/06/08 05:03:12;;;;;;;20.65;2.53;;;;;;;31.02;34.04;100514.09;5097785;28;20036;-63
2022/06/08 05:05:41;;;;;;;21.63;3.15;;;;;;;31.07;34.44;100513.69;5072048;28;20045;-61
2022/06/08 05:08:12;;;;;;;24.50;2.78;;;;;;;30.95;34.79;100521.34;5077924;28;20109;-61
2022/06/08 05:10:43;;;;;;;21.55;3.00;;;;;;;30.91;35.07;100526.19;5097463;28;20024;-62
2022/06/08 05:13:14;;;;;;;23.55;2.83;;;;;;;30.76;35.34;100521.06;5059440;28;20044;-62
2022/06/08 05:15:45;;;;;;;23.80;2.70;;;;;;;30.74;35.39;100532.69;5077218;28;20031;-62
2022/06/08 05:18:20;;;;;;;14.02;2.17;;;;;;;30.62;35.68;100524.69;5092004;28;20116;-64
2022/06/08 05:20:49;;;;;;;23.25;2.33;;;;;;;30.49;35.77;100523.50;5079742;28;20109;-63
2022/06/08 05:23:23;;;;;;;11.50;2.45;;;;;;;30.38;35.31;100527.16;5087283;28;20102;-63
2022/06/08 05:25:52;;;;;;;21.15;2.67;;;;;;;30.43;36.24;100525.94;5088864;28;20028;-64
2022/06/08 05:28:19;;;;;;;17.75;2.03;;;;;;;30.38;36.83;100538.38;5079042;28;20115;-63
2022/06/08 05:30:53;;;;;;;15.50;2.10;;;;;;;30.29;37.21;100529.56;5091214;28;20032;-64
2022/06/08 05:33:21;;;;;;;11.63;2.22;;;;;;;30.26;37.18;100538.78;5084367;28;20043;-64
2022/06/08 05:35:49;;;;;;;15.63;1.90;;;;;;;30.12;37.86;100541.63;5090088;28;20023;-63
2022/06/08 05:38:18;;;;;;;12.95;1.88;;;;;;;30.14;37.96;100538.41;5080466;28;20482;-63
2022/06/08 05:40:46;;;;;;;10.80;2.03;;;;;;;30.05;37.55;100544.44;5064029;28;20439;-64
2022/06/08 05:43:15;;;;;;;16.23;2.38;;;;;;;30.05;38.41;100545.22;5089611;28;20043;-64
2022/06/08 05:45:47;;;;;;;13.00;2.08;;;;;;;29.99;38.10;100554.44;5082974;28;20280;-62
2022/06/08 05:48:15;;;;;;;23.73;2.75;;;;;;;29.91;39.47;100547.22;5071696;28;20060;-62
2022/06/08 05:50:44;;;;;;;26.60;2.90;;;;;;;29.78;41.13;100556.00;5093359;28;20031;-64
2022/06/08 05:53:15;;;;;;;12.98;2.17;;;;;;;29.88;38.08;100562.81;5048492;28;20043;-64
2022/06/08 05:55:43;;;;;;;11.48;2.20;;;;;;;29.77;39.51;100557.22;5080033;28;20039;-63
2022/06/08 05:58:11;;;;;;;10.05;2.13;;;;;;;29.74;38.22;100552.41;5074009;28;20028;-62
2022/06/08 06:00:41;;;;;;;10.13;1.98;;;;;;;29.72;37.88;100552.00;5060878;28;20127;-61
2022/06/08 06:03:10;;;;;;;16.90;2.30;;;;;;;29.61;38.43;100550.38;5071420;28;20233;-62
2022/06/08 06:05:39;;;;;;;12.65;1.90;;;;;;;29.58;38.73;100546.38;5091334;28;20028;-62
2022/06/08 06:08:10;;;;;;;8.07;1.95;;;;;;;29.57;38.50;100544.78;5092956;28;20040;-61
2022/06/08 06:10:45;;;;;;;13.27;2.22;;;;;;;29.64;38.35;100539.22;5095424;28;20133;-63
2022/06/08 06:13:18;;;;;;;9.95;2.05;;;;;;;29.57;38.07;100539.19;5072128;28;20492;-61
2022/06/08 06:15:51;;;;;;;6.97;1.60;;;;;;;29.60;38.80;100537.59;5076943;28;20485;-61
2022/06/08 06:18:19;;;;;;;9.75;2.10;;;;;;;29.55;39.02;100538.00;5075384;28;20497;-61
2022/06/08 06:20:55;;;;;;;7.28;1.98;;;;;;;29.56;38.90;100534.00;5069108;28;20028;-63
2022/06/08 06:23:28;;;;;;;10.63;2.17;;;;;;;29.62;38.79;100535.19;5076085;28;20035;-60
2022/06/08 06:26:03;;;;;;;7.22;2.10;;;;;;;29.54;39.59;100528.00;5073618;28;20508;-61
2022/06/08 06:28:45;;;;;;;12.77;2.40;;;;;;;29.52;40.26;100524.78;5069581;28;20036;-61
2022/06/08 06:31:41;;;;;;;12.50;2.13;;;;;;;29.48;40.31;100531.19;5075970;28;20032;-62
2022/06/08 06:34:14;;;;;;;7.68;2.20;;;;;;;29.41;40.86;100533.94;5073774;28;20036;-62
2022/06/08 06:36:43;;;;;;;15.93;2.45;;;;;;;29.38;41.40;100522.72;5077173;28;20035;-62
2022/06/08 06:39:09;;;;;;;13.50;2.33;;;;;;;29.24;41.46;100514.31;5074095;28;20429;-61
2022/06/08 06:41:41;;;;;;;11.95;2.55;;;;;;;29.19;41.83;100519.09;5091083;28;20038;-61
2022/06/08 06:44:08;;;;;;;12.60;2.63;;;;;;;29.10;42.65;100531.88;5089520;28;20032;-61
2022/06/08 06:46:51;;;;;;;12.23;2.83;;;;;;;28.95;43.74;100547.81;5073671;28;20030;-63
2022/06/08 06:49:33;;;;;;;13.73;2.42;;;;;;;28.78;44.38;100542.91;5089710;28;20608;-62
2022/06/08 06:52:00;;;;;;;7.85;2.13;;;;;;;28.68;44.72;100550.06;5058484;28;20032;-61
2022/06/08 06:54:27;;;;;;;10.98;2.85;;;;;;;28.63;45.53;100560.81;5073456;28;20035;-61
2022/06/08 06:56:55;;;;;;;9.80;2.33;;;;;;;28.61;45.76;100561.22;5073353;28;20027;-62
2022/06/08 06:59:28;;;;;;;12.82;2.30;;;;;;;28.54;45.65;100555.56;5071315;28;20030;-61
2022/06/08 07:01:55;;;;;;;13.00;2.45;;;;;;;28.55;46.12;100558.00;5071617;28;20162;-61
2022/06/08 07:04:24;;;;;;;12.30;2.45;;;;;;;28.58;45.43;100562.81;5075574;28;20054;-61
2022/06/08 07:06:54;;;;;;;12.48;2.60;;;;;;;28.62;45.87;100557.22;5068258;28;20028;-60
2022/06/08 07:09:21;;;;;;;13.27;2.60;;;;;;;28.62;45.30;100548.03;5058091;28;20048;-60
2022/06/08 07:11:50;;;;;;;10.57;2.40;;;;;;;28.46;45.00;100551.94;5075806;28;20028;-62
2022/06/08 07:14:30;;;;;;;12.77;2.10;;;;;;;28.58;44.31;100562.00;5078596;28;20028;-60
2022/06/08 07:17:06;;;;;;;7.63;1.70;;;;;;;28.40;43.89;100550.72;5088999;28;20074;-61
2022/06/08 07:19:37;;;;;;;7.93;2.03;;;;;;;28.25;43.71;100560.16;5069904;28;20039;-60
2022/06/08 07:22:06;;;;;;;7.35;1.77;;;;;;;28.24;42.23;100564.16;5064176;28;20433;-60
2022/06/08 07:24:34;;;;;;;8.13;1.77;;;;;;;28.18;41.66;100560.09;5110195;28;20586;-60
2022/06/08 07:27:04;;;;;;;9.18;2.38;;;;;;;28.25;40.19;100557.38;5099154;28;20027;-60
2022/06/08 07:29:31;;;;;;;12.73;2.70;;;;;;;28.18;40.11;100557.31;5103381;28;20081;-62
2022/06/08 07:31:59;;;;;;;13.73;2.28;;;;;;;28.23;39.67;100568.94;5107267;28;20047;-60
2022/06/08 07:34:25;;;;;;;11.60;2.25;;;;;;;28.15;38.92;100556.09;5096329;28;20028;-61
2022/06/08 07:36:52;;;;;;;16.45;2.17;;;;;;;28.00;39.57;100559.97;5093639;28;20478;-60
2022/06/08 07:39:20;;;;;;;11.60;1.80;;;;;;;27.99;39.13;100570.34;5093016;28;20020;-60
2022/06/08 07:41:51;;;;;;;22.25;2.50;;;;;;;27.82;39.20;100568.19;5105814;28;20122;-60
2022/06/08 07:44:19;;;;;;;16.48;2.03;;;;;;;27.74;40.55;100574.91;5096691;28;20475;-60
2022/06/08 07:46:47;;;;;;;14.90;2.35;;;;;;;27.64;41.23;100582.00;5080448;28;20095;-60
2022/06/08 07:52:02;;;;;;;11.02;1.88;;;;;;;27.43;41.45;100569.78;5107853;28;20172;-60
2022/06/08 07:54:30;;;;;;;7.47;1.80;;;;;;;27.48;41.97;100567.47;5094157;28;20119;-60
2022/06/08 07:56:58;;;;;;;9.23;1.83;;;;;;;27.58;42.37;100558.38;5093424;28;20016;-60
2022/06/08 07:59:28;;;;;;;12.68;1.88;;;;;;;27.61;42.68;100559.59;5093324;28;20032;-60
2022/06/08 08:02:14;;;;;;;14.20;1.65;;;;;;;27.67;43.17;100553.31;5092830;28;20043;-60
2022/06/08 08:04:45;;;;;;;13.35;1.83;;;;;;;27.54;44.12;100551.16;5074198;28;20047;-60
2022/06/08 08:07:13;;;;;;;6.78;1.45;;;;;;;27.32;45.01;100550.97;5075372;28;20078;-62
2022/06/08 08:09:41;;;;;;;12.30;2.15;;;;;;;27.20;46.21;100551.22;5092927;28;20584;-61
2022/06/08 08:12:11;;;;;;;14.43;1.95;;;;;;;27.10;46.28;100557.47;5093420;28;20028;-61
2022/06/08 08:14:38;;;;;;;13.57;2.05;;;;;;;27.01;47.07;100560.56;5093180;28;20051;-61
2022/06/08 08:17:05;;;;;;;11.40;2.05;;;;;;;26.98;47.79;100550.13;5093178;28;20417;-60
2022/06/08 08:19:32;;;;;;;9.85;1.92;;;;;;;27.00;47.60;100547.81;5075092;28;20032;-61
2022/06/08 08:21:59;;;;;;;10.68;1.88;;;;;;;27.03;48.79;100546.22;5093052;28;20020;-61
2022/06/08 08:24:27;;;;;;;9.52;2.10;;;;;;;26.93;48.41;100553.28;5093376;28;20032;-61
2022/06/08 08:26:56;;;;;;;41.55;3.22;;;;;;;26.87;49.49;100560.34;5075253;28;20073;-60
2022/06/08 08:29:23;;;;;;;16.98;2.45;;;;;;;26.86;50.82;100563.53;5093114;28;20042;-60
2022/06/08 08:31:50;;;;;;;9.45;2.60;;;;;;;26.78;51.44;100559.84;5093000;28;20382;-61
2022/06/08 08:34:18;;;;;;;7.35;2.10;;;;;;;26.78;52.20;100555.06;5093124;28;20114;-61
2022/06/08 08:36:45;;;;;;;10.50;2.20;;;;;;;26.73;53.19;100544.22;5093331;28;20396;-61
2022/06/08 08:39:12;;;;;;;9.88;1.83;;;;;;;26.69;54.43;100543.38;5092761;28;20060;-61
2022/06/08 08:44:36;;;;;;;;;;;;;;;26.61;55.95;100566.78;5093377;28;20036;-60
2022/06/08 08:47:15;;;;;;;6.40;2.50;;;;;;;26.48;54.73;100557.03;5093069;28;20014;-60
2022/06/08 08:49:51;;;;;;;7.00;2.00;;;;;;;26.45;54.68;100555.00;5092757;28;20040;-60
2022/06/08 08:52:45;;;;;;;9.57;2.10;;;;;;;26.47;56.93;100558.22;5092854;28;20501;-61
2022/06/08 08:55:16;;;;;;;12.75;2.75;;;;;;;26.41;57.58;100552.19;5092344;28;20071;-61
2022/06/08 08:58:12;;;;;;;9.35;2.10;;;;;;;26.40;57.92;100555.34;5092814;28;20101;-61
2022/06/08 09:00:40;;;;;;;10.27;2.58;;;;;;;26.33;58.24;100544.84;5082248;28;20056;-61
2022/06/08 09:03:22;;;;;;;11.98;2.55;;;;;;;26.36;58.36;100558.06;5074694;28;20028;-60
2022/06/08 09:05:54;;;;;;;13.80;2.70;;;;;;;26.31;58.95;100557.56;5074618;28;20032;-60
2022/06/08 09:08:23;;;;;;;15.23;2.95;;;;;;;26.26;59.51;100558.69;5089832;28;20036;-60
2022/06/08 09:10:52;;;;;;;433.83;16.05;;;;;;;26.25;59.84;100556.28;5072406;28;20040;-60
2022/06/08 09:13:25;;;;;;;10.77;2.38;;;;;;;26.22;59.95;100557.84;5073145;28;20033;-60
2022/06/08 09:15:57;;;;;;;8.18;2.30;;;;;;;26.05;60.48;100553.59;5076200;28;20032;-61
2022/06/08 09:18:39;;;;;;;9.70;2.80;;;;;;;26.04;61.03;100565.13;5076097;28;20043;-60
2022/06/08 09:21:27;;;;;;;12.50;2.97;;;;;;;25.99;61.80;100565.41;5076209;28;20111;-60
2022/06/08 09:24:07;;;;;;;8.60;2.72;;;;;;;25.95;61.98;100556.19;5075883;28;20064;-61
2022/06/08 09:26:42;;;;;;;12.48;2.20;;;;;;;25.94;62.24;100558.19;5075969;28;20039;-60
2022/06/08 09:29:17;;;;;;;7.95;2.47;;;;;;;25.92;62.59;100549.41;5076058;28;20089;-61
2022/06/08 09:31:47;;;;;;;9.52;2.72;;;;;;;25.90;63.31;100574.03;5057976;28;20037;-60
2022/06/08 09:34:24;;;;;;;12.63;2.40;;;;;;;25.84;63.61;100570.72;5075811;28;20217;-60
2022/06/08 09:37:14;;;;;;;12.07;3.00;;;;;;;25.82;63.51;100561.16;5075751;28;20481;-61
2022/06/08 09:39:45;;;;;;;8.60;3.20;;;;;;;25.75;64.30;100556.28;5086645;28;20082;-60
2022/06/08 09:42:24;;;;;;;10.95;3.42;;;;;;;25.73;64.19;100564.19;5077992;28;20032;-61
2022/06/08 09:45:23;;;;;;;12.63;5.07;;;;;;;25.60;64.63;100569.09;5096112;28;20097;-60
2022/06/08 09:53:57;;;;;;;12.00;4.80;;;;;;;25.58;65.03;100568.66;5096009;28;20436;-60
2022/06/08 09:57:11;;;;;;;13.35;4.50;;;;;;;25.61;64.67;100573.50;5095550;28;20111;-60
2022/06/08 09:59:43;;;;;;;9.73;3.97;;;;;;;25.54;64.75;100581.72;4994262;28;20064;-60
2022/06/08 10:02:38;;;;;;;11.10;3.17;;;;;;;25.46;64.68;100576.38;5088153;28;20093;-60
2022/06/08 10:05:08;;;;;;;12.75;3.28;;;;;;;25.42;64.68;100570.75;5095653;28;20024;-59
2022/06/08 10:07:59;;;;;;;12.57;3.58;;;;;;;25.34;65.21;100577.38;5095354;28;20432;-61
2022/06/08 10:10:32;;;;;;;8.85;2.90;;;;;;;25.32;65.29;100574.16;5078394;28;20046;-60
2022/06/08 10:13:02;;;;;;;7.32;3.28;;;;;;;25.32;65.52;100576.94;5075513;28;20115;-60
2022/06/08 10:15:36;;;;;;;14.30;3.08;;;;;;;25.29;65.39;100580.44;5075133;28;20044;-60
2022/06/08 10:18:21;;;;;;;12.50;2.88;;;;;;;25.27;64.93;100580.78;5075322;28;20033;-60
2022/06/08 10:20:50;;;;;;;;;;;;;;;25.24;64.63;100586.28;5075692;28;20036;-60
2022/06/08 10:23:25;;;;;;;15.00;3.20;;;;;;;25.16;64.84;100587.34;5075298;28;20402;-60
2022/06/08 10:26:01;;;;;;;6.97;2.90;;;;;;;25.18;64.53;100593.34;5074728;28;20039;-60
2022/06/08 10:28:46;;;;;;;13.77;2.80;;;;;;;25.15;65.01;100594.06;5075133;28;20060;-61
2022/06/08 10:31:12;;;;;;;;;;;;;;;25.10;64.75;100597.13;5075422;28;20044;-61
2022/06/08 10:33:58;;;;;;;8.52;3.13;;;;;;;25.13;64.47;100604.72;5056927;28;19912;-61
2022/06/08 10:36:25;;;;;;;10.68;2.88;;;;;;;25.13;63.53;100601.94;5056822;28;20395;-60
2022/06/08 10:38:52;;;;;;;10.02;3.10;;;;;;;24.95;63.63;100605.13;5077014;28;20107;-60
2022/06/08 10:44:48;;;;;;;104.53;5.88;;;;;;;24.89;62.25;100603.03;5094749;28;20056;-60
2022/06/08 10:47:16;;;;;;;26.60;3.28;;;;;;;24.85;61.99;100607.69;5095021;28;20063;-61
2022/06/08 10:49:45;;;;;;;13.18;3.08;;;;;;;24.82;61.19;100609.25;5094772;28;20377;-60
2022/06/08 10:52:19;;;;;;;9.75;2.78;;;;;;;24.70;61.22;100599.03;5094584;28;20036;-60
2022/06/08 10:55:13;;;;;;;10.30;2.85;;;;;;;24.69;60.67;100596.63;5094710;28;20032;-60
2022/06/08 10:57:51;;;;;;;9.30;2.53;;;;;;;24.67;60.15;100608.13;5094493;28;20040;-60
2022/06/08 11:00:24;;;;;;;31.38;2.75;;;;;;;24.62;60.25;100604.81;5094630;28;20039;-60
2022/06/08 11:03:01;;;;;;;7.22;2.20;;;;;;;24.63;59.85;100604.47;5076416;28;20072;-60
2022/06/08 11:05:36;;;;;;;9.73;2.33;;;;;;;24.52;60.23;100613.72;5094447;28;20039;-60
2022/06/08 11:08:12;;;;;;;8.05;2.20;;;;;;;24.50;60.57;100614.06;5094142;28;20402;-60
2022/06/08 11:10:49;;;;;;;9.25;2.50;;;;;;;24.50;60.30;100619.63;5094073;28;20342;-60
2022/06/08 11:13:22;;;;;;;10.68;2.30;;;;;;;24.49;60.11;100611.66;5094296;28;20371;-60
2022/06/08 11:16:22;;;;;;;8.55;2.67;;;;;;;24.41;59.98;100622.59;5094299;28;20028;-60
2022/06/08 11:18:56;;;;;;;11.93;2.67;;;;;;;24.38;60.26;100612.19;5094454;28;20046;-60
2022/06/08 11:21:43;;;;;;;11.45;3.00;;;;;;;24.36;60.33;100617.31;5076205;28;20036;-60
2022/06/08 11:24:17;;;;;;;10.25;2.97;;;;;;;24.34;60.34;100616.88;5094155;28;20063;-60
2022/06/08 11:27:10;;;;;;;12.40;2.58;;;;;;;24.23;60.76;100612.19;5094077;28;20032;-60
2022/06/08 11:29:51;;;;;;;12.50;3.45;;;;;;;24.23;61.20;100624.09;5087161;28;20044;-60
2022/06/08 11:32:33;;;;;;;10.82;2.92;;;;;;;24.28;60.57;100621.06;5093993;28;20028;-61
2022/06/08 11:35:23;;;;;;;7.63;2.70;;;;;;;24.25;61.04;100630.13;5075855;28;20035;-60
2022/06/08 11:38:05;;;;;;;11.38;2.85;;;;;;;24.20;61.36;100622.03;5092917;28;20036;-60
2022/06/08 11:40:36;;;;;;;10.48;2.65;;;;;;;24.15;61.59;100624.28;5093855;28;20028;-60
2022/06/08 11:43:15;;;;;;;12.75;3.63;;;;;;;24.10;61.79;100637.28;5093718;28;20085;-60
2022/06/08 11:45:51;;;;;;;13.40;3.30;;;;;;;24.12;61.57;100639.69;5093791;28;20034;-60
2022/06/08 11:48:20;;;;;;;9.40;2.92;;;;;;;24.12;61.87;100642.47;5093963;28;20482;-60
2022/06/08 11:50:49;;;;;;;15.75;3.25;;;;;;;24.10;61.80;100650.38;5093589;28;20035;-59
2022/06/08 11:53:25;;;;;;;13.60;3.25;;;;;;;24.12;62.26;100656.38;5075397;28;20060;-59
2022/06/08 11:56:16;;;;;;;10.13;3.15;;;;;;;24.07;62.49;100657.44;5093861;28;20081;-59
2022/06/08 11:58:48;;;;;;;8.85;3.30;;;;;;;24.01;62.59;100644.97;5093568;28;20036;-59
2022/06/08 12:01:20;;;;;;;14.77;3.33;;;;;;;23.91;63.02;100653.03;5093421;28;20501;-60
2022/06/08 12:03:56;;;;;;;10.75;3.63;;;;;;;23.92;63.08;100654.66;5090778;28;20036;-61
2022/06/08 12:06:36;;;;;;;13.10;3.60;;;;;;;23.91;63.91;100641.94;5086010;28;20033;-61